sensor_id;sensor_type;location;lat;lon;timestamp;temperature;humidity
28548;DHT22;15750;49.600;8.746;2022-10-22T00:00:36;21.80;63.20
28548;DHT22;15750;49.600;8.746;2022-10-22T00:03:23;21.80;63.10
28548;DHT22;15750;49.600;8.746;2022-10-22T00:06:11;21.80;63.10
28548;DHT22;15750;49.600;8.746;2022-10-22T00:08:59;21.80;63.10
28548;DHT22;15750;49.600;8.746;2022-10-22T00:11:47;21.80;62.90
28548;DHT22;15750;49.600;8.746;2022-10-22T00:14:34;21.80;62.90
28548;DHT22;15750;49.600;8.746;2022-10-22T00:17:21;21.80;63.00
28548;DHT22;15750;49.600;8.746;2022-10-22T00:20:09;21.80;62.80
28548;DHT22;15750;49.600;8.746;2022-10-22T00:22:56;21.80;62.80
28548;DHT22;15750;49.600;8.746;2022-10-22T00:25:45;21.80;62.70
28548;DHT22;15750;49.600;8.746;2022-10-22T00:28:32;21.80;62.40
28548;DHT22;15750;49.600;8.746;2022-10-22T00:31:19;21.80;62.40
28548;DHT22;15750;49.600;8.746;2022-10-22T00:34:06;21.80;62.60
28548;DHT22;15750;49.600;8.746;2022-10-22T00:36:53;21.80;62.50
28548;DHT22;15750;49.600;8.746;2022-10-22T00:39:41;21.80;62.40
28548;DHT22;15750;49.600;8.746;2022-10-22T00:42:30;21.80;62.40
28548;DHT22;15750;49.600;8.746;2022-10-22T00:45:20;21.80;62.40
28548;DHT22;15750;49.600;8.746;2022-10-22T00:48:10;21.80;62.30
28548;DHT22;15750;49.600;8.746;2022-10-22T00:51:02;21.80;62.10
28548;DHT22;15750;49.600;8.746;2022-10-22T00:53:53;21.80;62.30
28548;DHT22;15750;49.600;8.746;2022-10-22T00:56:41;21.80;62.00
28548;DHT22;15750;49.600;8.746;2022-10-22T00:59:31;21.80;62.20
28548;DHT22;15750;49.600;8.746;2022-10-22T01:02:19;21.80;62.10
28548;DHT22;15750;49.600;8.746;2022-10-22T01:05:07;21.80;62.10
28548;DHT22;15750;49.600;8.746;2022-10-22T01:07:55;21.80;62.10
28548;DHT22;15750;49.600;8.746;2022-10-22T01:10:50;21.70;62.10
28548;DHT22;15750;49.600;8.746;2022-10-22T01:13:48;21.70;61.80
28548;DHT22;15750;49.600;8.746;2022-10-22T01:16:46;21.70;61.70
28548;DHT22;15750;49.600;8.746;2022-10-22T01:19:55;21.80;61.60
28548;DHT22;15750;49.600;8.746;2022-10-22T01:22:54;21.70;61.40
28548;DHT22;15750;49.600;8.746;2022-10-22T01:25:49;21.70;61.50
28548;DHT22;15750;49.600;8.746;2022-10-22T01:28:54;21.70;61.50
28548;DHT22;15750;49.600;8.746;2022-10-22T01:31:49;21.70;61.40
28548;DHT22;15750;49.600;8.746;2022-10-22T01:34:42;21.70;61.60
28548;DHT22;15750;49.600;8.746;2022-10-22T01:37:35;21.70;61.60
28548;DHT22;15750;49.600;8.746;2022-10-22T01:40:26;21.70;61.60
28548;DHT22;15750;49.600;8.746;2022-10-22T01:43:14;21.70;61.70
28548;DHT22;15750;49.600;8.746;2022-10-22T01:46:04;21.70;61.80
28548;DHT22;15750;49.600;8.746;2022-10-22T01:49:02;21.70;61.60
28548;DHT22;15750;49.600;8.746;2022-10-22T01:52:03;21.70;61.50
28548;DHT22;15750;49.600;8.746;2022-10-22T01:55:06;21.70;61.60
28548;DHT22;15750;49.600;8.746;2022-10-22T01:58:08;21.70;61.60
28548;DHT22;15750;49.600;8.746;2022-10-22T02:01:12;21.70;61.50
28548;DHT22;15750;49.600;8.746;2022-10-22T02:04:09;21.70;61.60
28548;DHT22;15750;49.600;8.746;2022-10-22T02:07:02;21.70;61.50
28548;DHT22;15750;49.600;8.746;2022-10-22T02:09:51;21.70;61.70
28548;DHT22;15750;49.600;8.746;2022-10-22T02:12:40;21.70;61.80
28548;DHT22;15750;49.600;8.746;2022-10-22T02:15:29;21.60;61.60
28548;DHT22;15750;49.600;8.746;2022-10-22T02:18:22;21.60;61.80
28548;DHT22;15750;49.600;8.746;2022-10-22T02:21:11;21.60;61.50
28548;DHT22;15750;49.600;8.746;2022-10-22T02:23:59;21.60;61.70
28548;DHT22;15750;49.600;8.746;2022-10-22T02:26:51;21.60;61.70
28548;DHT22;15750;49.600;8.746;2022-10-22T02:29:45;21.60;61.50
28548;DHT22;15750;49.600;8.746;2022-10-22T02:32:38;21.60;61.60
28548;DHT22;15750;49.600;8.746;2022-10-22T02:35:29;21.60;62.50
28548;DHT22;15750;49.600;8.746;2022-10-22T02:38:18;21.60;61.70
28548;DHT22;15750;49.600;8.746;2022-10-22T02:41:05;21.60;61.70
28548;DHT22;15750;49.600;8.746;2022-10-22T02:43:54;21.60;61.80
28548;DHT22;15750;49.600;8.746;2022-10-22T02:46:42;21.60;61.70
28548;DHT22;15750;49.600;8.746;2022-10-22T02:49:29;21.60;61.80
28548;DHT22;15750;49.600;8.746;2022-10-22T02:52:18;21.60;61.80
28548;DHT22;15750;49.600;8.746;2022-10-22T02:55:06;21.60;61.80
28548;DHT22;15750;49.600;8.746;2022-10-22T02:57:53;21.60;61.80
28548;DHT22;15750;49.600;8.746;2022-10-22T03:00:41;21.60;61.80
28548;DHT22;15750;49.600;8.746;2022-10-22T03:03:28;21.60;61.80
28548;DHT22;15750;49.600;8.746;2022-10-22T03:06:15;21.60;61.70
28548;DHT22;15750;49.600;8.746;2022-10-22T03:09:04;21.60;61.70
28548;DHT22;15750;49.600;8.746;2022-10-22T03:11:51;21.60;61.70
28548;DHT22;15750;49.600;8.746;2022-10-22T03:14:38;21.60;61.80
28548;DHT22;15750;49.600;8.746;2022-10-22T03:17:25;21.60;61.80
28548;DHT22;15750;49.600;8.746;2022-10-22T03:20:12;21.60;61.80
28548;DHT22;15750;49.600;8.746;2022-10-22T03:23:01;21.60;61.90
28548;DHT22;15750;49.600;8.746;2022-10-22T03:25:50;21.60;61.90
28548;DHT22;15750;49.600;8.746;2022-10-22T03:28:38;21.60;61.90
28548;DHT22;15750;49.600;8.746;2022-10-22T03:31:25;21.60;61.80
28548;DHT22;15750;49.600;8.746;2022-10-22T03:34:13;21.60;61.80
28548;DHT22;15750;49.600;8.746;2022-10-22T03:37:01;21.60;61.80
28548;DHT22;15750;49.600;8.746;2022-10-22T03:39:48;21.60;61.80
28548;DHT22;15750;49.600;8.746;2022-10-22T03:42:37;21.60;61.80
28548;DHT22;15750;49.600;8.746;2022-10-22T03:45:24;21.60;61.70
28548;DHT22;15750;49.600;8.746;2022-10-22T03:48:11;21.60;61.70
28548;DHT22;15750;49.600;8.746;2022-10-22T03:50:58;21.60;61.60
28548;DHT22;15750;49.600;8.746;2022-10-22T03:53:46;21.60;61.50
28548;DHT22;15750;49.600;8.746;2022-10-22T03:56:33;21.60;61.60
28548;DHT22;15750;49.600;8.746;2022-10-22T03:59:21;21.60;61.60
28548;DHT22;15750;49.600;8.746;2022-10-22T04:02:09;21.60;61.60
28548;DHT22;15750;49.600;8.746;2022-10-22T04:04:57;21.60;61.60
28548;DHT22;15750;49.600;8.746;2022-10-22T04:07:44;21.60;61.60
28548;DHT22;15750;49.600;8.746;2022-10-22T04:10:32;21.60;61.60
28548;DHT22;15750;49.600;8.746;2022-10-22T04:13:19;21.60;61.60
28548;DHT22;15750;49.600;8.746;2022-10-22T04:16:09;21.60;61.50
28548;DHT22;15750;49.600;8.746;2022-10-22T04:18:57;21.60;61.40
28548;DHT22;15750;49.600;8.746;2022-10-22T04:21:45;21.60;61.30
28548;DHT22;15750;49.600;8.746;2022-10-22T04:24:32;21.60;61.30
28548;DHT22;15750;49.600;8.746;2022-10-22T04:27:19;21.60;61.30
28548;DHT22;15750;49.600;8.746;2022-10-22T04:30:08;21.60;61.10
28548;DHT22;15750;49.600;8.746;2022-10-22T04:32:57;21.60;61.20
28548;DHT22;15750;49.600;8.746;2022-10-22T04:35:44;21.60;61.00
28548;DHT22;15750;49.600;8.746;2022-10-22T04:38:32;21.60;61.00
28548;DHT22;15750;49.600;8.746;2022-10-22T04:41:20;21.60;60.90
28548;DHT22;15750;49.600;8.746;2022-10-22T04:44:09;21.50;60.80
28548;DHT22;15750;49.600;8.746;2022-10-22T04:47:01;21.50;60.70
28548;DHT22;15750;49.600;8.746;2022-10-22T04:49:50;21.50;60.70
28548;DHT22;15750;49.600;8.746;2022-10-22T04:52:37;21.50;60.60
28548;DHT22;15750;49.600;8.746;2022-10-22T04:55:25;21.50;60.70
28548;DHT22;15750;49.600;8.746;2022-10-22T04:58:12;21.50;60.70
28548;DHT22;15750;49.600;8.746;2022-10-22T05:00:59;21.50;60.60
28548;DHT22;15750;49.600;8.746;2022-10-22T05:03:50;21.50;60.40
28548;DHT22;15750;49.600;8.746;2022-10-22T05:06:39;21.50;60.40
28548;DHT22;15750;49.600;8.746;2022-10-22T05:09:27;21.40;60.20
28548;DHT22;15750;49.600;8.746;2022-10-22T05:12:14;21.40;60.50
28548;DHT22;15750;49.600;8.746;2022-10-22T05:15:01;21.50;60.50
28548;DHT22;15750;49.600;8.746;2022-10-22T05:17:49;21.40;60.50
28548;DHT22;15750;49.600;8.746;2022-10-22T05:20:38;21.50;60.70
28548;DHT22;15750;49.600;8.746;2022-10-22T05:23:27;21.40;60.70
28548;DHT22;15750;49.600;8.746;2022-10-22T05:26:18;21.40;60.70
28548;DHT22;15750;49.600;8.746;2022-10-22T05:29:06;21.50;60.90
28548;DHT22;15750;49.600;8.746;2022-10-22T05:31:53;21.40;60.80
28548;DHT22;15750;49.600;8.746;2022-10-22T05:34:41;21.40;60.80
28548;DHT22;15750;49.600;8.746;2022-10-22T05:37:28;21.40;60.80
28548;DHT22;15750;49.600;8.746;2022-10-22T05:40:17;21.40;60.80
28548;DHT22;15750;49.600;8.746;2022-10-22T05:43:15;21.40;60.70
28548;DHT22;15750;49.600;8.746;2022-10-22T05:46:03;21.50;60.80
28548;DHT22;15750;49.600;8.746;2022-10-22T05:48:53;21.50;60.70
28548;DHT22;15750;49.600;8.746;2022-10-22T05:51:40;21.40;60.50
28548;DHT22;15750;49.600;8.746;2022-10-22T05:54:28;21.40;61.40
28548;DHT22;15750;49.600;8.746;2022-10-22T05:57:16;21.40;60.50
28548;DHT22;15750;49.600;8.746;2022-10-22T06:00:04;21.50;60.70
28548;DHT22;15750;49.600;8.746;2022-10-22T06:02:58;21.50;60.80
28548;DHT22;15750;49.600;8.746;2022-10-22T06:05:27;21.50;60.80
28548;DHT22;15750;49.600;8.746;2022-10-22T06:07:56;21.40;60.70
28548;DHT22;15750;49.600;8.746;2022-10-22T06:10:25;21.40;60.70
28548;DHT22;15750;49.600;8.746;2022-10-22T06:12:55;21.40;60.70
28548;DHT22;15750;49.600;8.746;2022-10-22T06:15:24;21.40;60.70
28548;DHT22;15750;49.600;8.746;2022-10-22T06:17:52;21.40;60.80
28548;DHT22;15750;49.600;8.746;2022-10-22T06:20:21;21.50;60.90
28548;DHT22;15750;49.600;8.746;2022-10-22T06:22:49;21.50;60.80
28548;DHT22;15750;49.600;8.746;2022-10-22T06:25:18;21.50;60.90
28548;DHT22;15750;49.600;8.746;2022-10-22T06:27:48;21.50;61.70
28548;DHT22;15750;49.600;8.746;2022-10-22T06:30:19;21.50;60.70
28548;DHT22;15750;49.600;8.746;2022-10-22T06:32:48;21.50;60.40
28548;DHT22;15750;49.600;8.746;2022-10-22T06:35:17;21.50;60.50
28548;DHT22;15750;49.600;8.746;2022-10-22T06:37:45;21.50;60.40
28548;DHT22;15750;49.600;8.746;2022-10-22T06:40:14;21.50;60.20
28548;DHT22;15750;49.600;8.746;2022-10-22T06:42:44;21.50;60.40
28548;DHT22;15750;49.600;8.746;2022-10-22T06:45:13;21.50;60.50
28548;DHT22;15750;49.600;8.746;2022-10-22T06:47:43;21.50;60.60
28548;DHT22;15750;49.600;8.746;2022-10-22T06:50:13;21.50;60.70
28548;DHT22;15750;49.600;8.746;2022-10-22T06:52:42;21.50;60.80
28548;DHT22;15750;49.600;8.746;2022-10-22T06:55:10;21.50;60.80
28548;DHT22;15750;49.600;8.746;2022-10-22T06:57:39;21.50;60.80
28548;DHT22;15750;49.600;8.746;2022-10-22T07:00:10;21.50;60.90
28548;DHT22;15750;49.600;8.746;2022-10-22T07:02:40;21.50;60.80
28548;DHT22;15750;49.600;8.746;2022-10-22T07:05:10;21.60;61.00
28548;DHT22;15750;49.600;8.746;2022-10-22T07:07:39;21.50;60.80
28548;DHT22;15750;49.600;8.746;2022-10-22T07:10:08;21.60;60.80
28548;DHT22;15750;49.600;8.746;2022-10-22T07:12:37;21.60;60.80
28548;DHT22;15750;49.600;8.746;2022-10-22T07:15:07;21.60;60.70
28548;DHT22;15750;49.600;8.746;2022-10-22T07:17:36;21.60;60.60
28548;DHT22;15750;49.600;8.746;2022-10-22T07:20:11;21.60;60.50
28548;DHT22;15750;49.600;8.746;2022-10-22T07:22:39;21.60;60.50
28548;DHT22;15750;49.600;8.746;2022-10-22T07:25:09;21.60;60.50
28548;DHT22;15750;49.600;8.746;2022-10-22T07:27:37;21.60;60.50
28548;DHT22;15750;49.600;8.746;2022-10-22T07:30:08;21.60;60.60
28548;DHT22;15750;49.600;8.746;2022-10-22T07:32:37;21.60;60.70
28548;DHT22;15750;49.600;8.746;2022-10-22T07:35:06;21.70;60.80
28548;DHT22;15750;49.600;8.746;2022-10-22T07:37:36;21.60;60.60
28548;DHT22;15750;49.600;8.746;2022-10-22T07:40:07;21.70;60.80
28548;DHT22;15750;49.600;8.746;2022-10-22T07:42:36;21.70;60.80
28548;DHT22;15750;49.600;8.746;2022-10-22T07:45:06;21.70;60.70
28548;DHT22;15750;49.600;8.746;2022-10-22T07:47:36;21.70;60.50
28548;DHT22;15750;49.600;8.746;2022-10-22T07:50:06;21.70;60.60
28548;DHT22;15750;49.600;8.746;2022-10-22T07:52:36;21.70;60.50
28548;DHT22;15750;49.600;8.746;2022-10-22T07:55:06;21.70;60.50
28548;DHT22;15750;49.600;8.746;2022-10-22T07:57:35;21.80;60.50
28548;DHT22;15750;49.600;8.746;2022-10-22T08:00:06;21.80;60.40
28548;DHT22;15750;49.600;8.746;2022-10-22T08:02:39;21.80;60.20
28548;DHT22;15750;49.600;8.746;2022-10-22T08:05:08;21.80;60.50
28548;DHT22;15750;49.600;8.746;2022-10-22T08:07:40;21.80;60.40
28548;DHT22;15750;49.600;8.746;2022-10-22T08:10:10;21.90;60.50
28548;DHT22;15750;49.600;8.746;2022-10-22T08:12:40;21.80;60.50
28548;DHT22;15750;49.600;8.746;2022-10-22T08:15:11;21.90;60.70
28548;DHT22;15750;49.600;8.746;2022-10-22T08:17:39;21.90;60.80
28548;DHT22;15750;49.600;8.746;2022-10-22T08:20:09;21.90;61.00
28548;DHT22;15750;49.600;8.746;2022-10-22T08:22:40;21.90;61.00
28548;DHT22;15750;49.600;8.746;2022-10-22T08:25:19;22.00;61.10
28548;DHT22;15750;49.600;8.746;2022-10-22T08:27:48;22.00;61.00
28548;DHT22;15750;49.600;8.746;2022-10-22T08:30:17;22.10;61.10
28548;DHT22;15750;49.600;8.746;2022-10-22T08:32:46;22.10;61.10
28548;DHT22;15750;49.600;8.746;2022-10-22T08:35:19;22.10;61.10
28548;DHT22;15750;49.600;8.746;2022-10-22T08:37:50;22.20;61.10
28548;DHT22;15750;49.600;8.746;2022-10-22T08:40:23;22.20;61.10
28548;DHT22;15750;49.600;8.746;2022-10-22T08:43:10;22.30;61.00
28548;DHT22;15750;49.600;8.746;2022-10-22T08:45:59;22.30;60.80
28548;DHT22;15750;49.600;8.746;2022-10-22T08:48:42;22.40;60.90
28548;DHT22;15750;49.600;8.746;2022-10-22T08:51:16;22.50;60.80
28548;DHT22;15750;49.600;8.746;2022-10-22T08:54:00;22.50;60.80
28548;DHT22;15750;49.600;8.746;2022-10-22T08:56:36;22.60;61.10
28548;DHT22;15750;49.600;8.746;2022-10-22T08:59:13;22.60;60.90
28548;DHT22;15750;49.600;8.746;2022-10-22T09:01:46;22.70;60.90
28548;DHT22;15750;49.600;8.746;2022-10-22T09:04:20;22.70;61.00
28548;DHT22;15750;49.600;8.746;2022-10-22T09:06:52;22.80;60.90
28548;DHT22;15750;49.600;8.746;2022-10-22T09:09:28;22.80;60.40
28548;DHT22;15750;49.600;8.746;2022-10-22T09:12:00;22.80;60.40
28548;DHT22;15750;49.600;8.746;2022-10-22T09:14:30;22.90;60.60
28548;DHT22;15750;49.600;8.746;2022-10-22T09:17:11;22.90;60.40
28548;DHT22;15750;49.600;8.746;2022-10-22T09:19:49;23.00;60.10
28548;DHT22;15750;49.600;8.746;2022-10-22T09:22:31;23.00;60.10
28548;DHT22;15750;49.600;8.746;2022-10-22T09:25:18;23.10;59.80
28548;DHT22;15750;49.600;8.746;2022-10-22T09:27:49;23.10;59.70
28548;DHT22;15750;49.600;8.746;2022-10-22T09:30:20;23.10;59.70
28548;DHT22;15750;49.600;8.746;2022-10-22T09:32:51;23.20;59.70
28548;DHT22;15750;49.600;8.746;2022-10-22T09:35:22;23.20;59.80
28548;DHT22;15750;49.600;8.746;2022-10-22T09:37:53;23.30;59.80
28548;DHT22;15750;49.600;8.746;2022-10-22T09:40:24;23.30;59.80
28548;DHT22;15750;49.600;8.746;2022-10-22T09:42:53;23.40;59.80
28548;DHT22;15750;49.600;8.746;2022-10-22T09:45:24;23.40;59.80
28548;DHT22;15750;49.600;8.746;2022-10-22T09:48:08;23.40;59.70
28548;DHT22;15750;49.600;8.746;2022-10-22T09:50:42;23.40;59.40
28548;DHT22;15750;49.600;8.746;2022-10-22T09:53:18;23.50;59.80
28548;DHT22;15750;49.600;8.746;2022-10-22T09:55:52;23.50;59.20
28548;DHT22;15750;49.600;8.746;2022-10-22T09:58:27;23.60;59.30
28548;DHT22;15750;49.600;8.746;2022-10-22T10:00:57;23.60;59.30
28548;DHT22;15750;49.600;8.746;2022-10-22T10:03:30;23.60;59.30
28548;DHT22;15750;49.600;8.746;2022-10-22T10:06:00;23.60;59.40
28548;DHT22;15750;49.600;8.746;2022-10-22T10:08:32;23.60;59.30
28548;DHT22;15750;49.600;8.746;2022-10-22T10:11:07;23.60;59.30
28548;DHT22;15750;49.600;8.746;2022-10-22T10:13:49;23.60;59.00
28548;DHT22;15750;49.600;8.746;2022-10-22T10:16:29;23.60;59.10
28548;DHT22;15750;49.600;8.746;2022-10-22T10:19:16;23.70;59.10
28548;DHT22;15750;49.600;8.746;2022-10-22T10:21:59;23.70;59.10
28548;DHT22;15750;49.600;8.746;2022-10-22T10:24:46;23.70;59.10
28548;DHT22;15750;49.600;8.746;2022-10-22T10:27:30;23.70;59.20
28548;DHT22;15750;49.600;8.746;2022-10-22T10:30:07;23.70;59.20
28548;DHT22;15750;49.600;8.746;2022-10-22T10:35:51;23.70;58.70
28548;DHT22;15750;49.600;8.746;2022-10-22T10:38:41;23.70;58.80
28548;DHT22;15750;49.600;8.746;2022-10-22T10:41:18;23.60;58.90
28548;DHT22;15750;49.600;8.746;2022-10-22T10:47:25;23.60;59.10
28548;DHT22;15750;49.600;8.746;2022-10-22T10:50:17;23.60;58.80
28548;DHT22;15750;49.600;8.746;2022-10-22T10:52:54;23.60;58.60
28548;DHT22;15750;49.600;8.746;2022-10-22T10:55:30;23.60;58.40
28548;DHT22;15750;49.600;8.746;2022-10-22T10:58:08;23.60;58.50
28548;DHT22;15750;49.600;8.746;2022-10-22T11:00:46;23.60;58.50
28548;DHT22;15750;49.600;8.746;2022-10-22T11:03:52;23.50;58.50
28548;DHT22;15750;49.600;8.746;2022-10-22T11:06:32;23.50;58.60
28548;DHT22;15750;49.600;8.746;2022-10-22T11:09:04;23.50;58.70
28548;DHT22;15750;49.600;8.746;2022-10-22T11:11:39;23.50;58.80
28548;DHT22;15750;49.600;8.746;2022-10-22T11:14:14;23.50;58.70
28548;DHT22;15750;49.600;8.746;2022-10-22T11:16:50;23.40;58.70
28548;DHT22;15750;49.600;8.746;2022-10-22T11:19:25;23.50;58.70
28548;DHT22;15750;49.600;8.746;2022-10-22T11:22:22;23.40;58.40
28548;DHT22;15750;49.600;8.746;2022-10-22T11:24:59;23.40;58.60
28548;DHT22;15750;49.600;8.746;2022-10-22T11:27:35;23.40;58.70
28548;DHT22;15750;49.600;8.746;2022-10-22T11:30:12;23.40;58.90
28548;DHT22;15750;49.600;8.746;2022-10-22T11:32:44;23.40;58.80
28548;DHT22;15750;49.600;8.746;2022-10-22T11:35:19;23.40;58.90
28548;DHT22;15750;49.600;8.746;2022-10-22T11:37:54;23.40;58.80
28548;DHT22;15750;49.600;8.746;2022-10-22T11:40:32;23.40;58.40
28548;DHT22;15750;49.600;8.746;2022-10-22T11:43:05;23.40;59.00
28548;DHT22;15750;49.600;8.746;2022-10-22T11:45:37;23.30;58.40
28548;DHT22;15750;49.600;8.746;2022-10-22T11:48:16;23.30;58.20
28548;DHT22;15750;49.600;8.746;2022-10-22T11:50:50;23.30;58.20
28548;DHT22;15750;49.600;8.746;2022-10-22T11:53:28;23.30;58.30
28548;DHT22;15750;49.600;8.746;2022-10-22T11:56:03;23.30;58.40
28548;DHT22;15750;49.600;8.746;2022-10-22T11:58:53;23.30;58.60
28548;DHT22;15750;49.600;8.746;2022-10-22T12:01:27;23.30;58.60
28548;DHT22;15750;49.600;8.746;2022-10-22T12:04:16;23.30;58.70
28548;DHT22;15750;49.600;8.746;2022-10-22T12:07:00;23.30;58.70
28548;DHT22;15750;49.600;8.746;2022-10-22T12:09:31;23.30;58.50
28548;DHT22;15750;49.600;8.746;2022-10-22T12:12:11;23.30;58.70
28548;DHT22;15750;49.600;8.746;2022-10-22T12:14:53;23.30;58.60
28548;DHT22;15750;49.600;8.746;2022-10-22T12:17:23;23.30;58.60
28548;DHT22;15750;49.600;8.746;2022-10-22T12:19:58;23.30;58.80
28548;DHT22;15750;49.600;8.746;2022-10-22T12:22:32;23.30;58.70
28548;DHT22;15750;49.600;8.746;2022-10-22T12:25:14;23.30;58.80
28548;DHT22;15750;49.600;8.746;2022-10-22T12:27:49;23.30;58.80
28548;DHT22;15750;49.600;8.746;2022-10-22T12:30:22;23.30;58.80
28548;DHT22;15750;49.600;8.746;2022-10-22T12:32:53;23.30;58.80
28548;DHT22;15750;49.600;8.746;2022-10-22T12:35:25;23.30;58.80
28548;DHT22;15750;49.600;8.746;2022-10-22T12:37:59;23.30;58.80
28548;DHT22;15750;49.600;8.746;2022-10-22T12:40:30;23.30;58.80
28548;DHT22;15750;49.600;8.746;2022-10-22T12:43:10;23.30;58.60
28548;DHT22;15750;49.600;8.746;2022-10-22T12:45:42;23.30;58.30
28548;DHT22;15750;49.600;8.746;2022-10-22T12:48:16;23.30;58.40
28548;DHT22;15750;49.600;8.746;2022-10-22T12:50:48;23.30;58.40
28548;DHT22;15750;49.600;8.746;2022-10-22T12:53:22;23.20;58.40
28548;DHT22;15750;49.600;8.746;2022-10-22T12:55:54;23.30;58.20
28548;DHT22;15750;49.600;8.746;2022-10-22T12:58:25;23.20;58.40
28548;DHT22;15750;49.600;8.746;2022-10-22T13:00:57;23.20;58.50
28548;DHT22;15750;49.600;8.746;2022-10-22T13:03:31;23.30;58.40
28548;DHT22;15750;49.600;8.746;2022-10-22T13:06:12;23.20;58.20
28548;DHT22;15750;49.600;8.746;2022-10-22T13:08:44;23.20;58.30
28548;DHT22;15750;49.600;8.746;2022-10-22T13:11:19;23.20;58.40
28548;DHT22;15750;49.600;8.746;2022-10-22T13:13:48;23.20;58.40
28548;DHT22;15750;49.600;8.746;2022-10-22T13:16:19;23.20;58.40
28548;DHT22;15750;49.600;8.746;2022-10-22T13:18:51;23.20;58.00
28548;DHT22;15750;49.600;8.746;2022-10-22T13:21:23;23.20;58.20
28548;DHT22;15750;49.600;8.746;2022-10-22T13:24:00;23.20;58.20
28548;DHT22;15750;49.600;8.746;2022-10-22T13:26:31;23.20;58.20
28548;DHT22;15750;49.600;8.746;2022-10-22T13:29:02;23.20;58.30
28548;DHT22;15750;49.600;8.746;2022-10-22T13:31:44;23.10;58.30
28548;DHT22;15750;49.600;8.746;2022-10-22T13:34:16;23.10;58.10
28548;DHT22;15750;49.600;8.746;2022-10-22T13:36:46;23.20;58.10
28548;DHT22;15750;49.600;8.746;2022-10-22T13:39:26;23.20;58.40
28548;DHT22;15750;49.600;8.746;2022-10-22T13:41:59;23.20;58.10
28548;DHT22;15750;49.600;8.746;2022-10-22T13:44:28;23.20;58.30
28548;DHT22;15750;49.600;8.746;2022-10-22T13:46:56;23.10;58.30
28548;DHT22;15750;49.600;8.746;2022-10-22T13:49:25;23.20;58.30
28548;DHT22;15750;49.600;8.746;2022-10-22T13:51:53;23.20;58.30
28548;DHT22;15750;49.600;8.746;2022-10-22T13:54:24;23.10;58.30
28548;DHT22;15750;49.600;8.746;2022-10-22T13:56:52;23.10;58.40
28548;DHT22;15750;49.600;8.746;2022-10-22T13:59:21;23.10;58.50
28548;DHT22;15750;49.600;8.746;2022-10-22T14:01:50;23.10;58.40
28548;DHT22;15750;49.600;8.746;2022-10-22T14:04:19;23.20;58.50
28548;DHT22;15750;49.600;8.746;2022-10-22T14:06:50;23.10;58.40
28548;DHT22;15750;49.600;8.746;2022-10-22T14:09:19;23.20;58.50
28548;DHT22;15750;49.600;8.746;2022-10-22T14:11:49;23.20;58.60
28548;DHT22;15750;49.600;8.746;2022-10-22T14:14:17;23.10;58.70
28548;DHT22;15750;49.600;8.746;2022-10-22T14:16:46;23.10;58.60
28548;DHT22;15750;49.600;8.746;2022-10-22T14:19:15;23.20;58.60
28548;DHT22;15750;49.600;8.746;2022-10-22T14:21:45;23.10;58.60
28548;DHT22;15750;49.600;8.746;2022-10-22T14:24:15;23.20;58.70
28548;DHT22;15750;49.600;8.746;2022-10-22T14:26:43;23.10;58.60
28548;DHT22;15750;49.600;8.746;2022-10-22T14:29:13;23.10;58.70
28548;DHT22;15750;49.600;8.746;2022-10-22T14:31:42;23.10;58.70
28548;DHT22;15750;49.600;8.746;2022-10-22T14:34:12;23.10;58.60
28548;DHT22;15750;49.600;8.746;2022-10-22T14:36:42;23.10;58.60
28548;DHT22;15750;49.600;8.746;2022-10-22T14:39:12;23.10;58.60
28548;DHT22;15750;49.600;8.746;2022-10-22T14:41:41;23.10;58.60
28548;DHT22;15750;49.600;8.746;2022-10-22T14:44:12;23.10;58.80
28548;DHT22;15750;49.600;8.746;2022-10-22T14:46:42;23.10;58.80
28548;DHT22;15750;49.600;8.746;2022-10-22T14:49:12;23.10;58.80
28548;DHT22;15750;49.600;8.746;2022-10-22T14:51:41;23.10;58.90
28548;DHT22;15750;49.600;8.746;2022-10-22T14:54:09;23.10;58.90
28548;DHT22;15750;49.600;8.746;2022-10-22T14:56:38;23.10;58.80
28548;DHT22;15750;49.600;8.746;2022-10-22T14:59:07;23.10;58.90
28548;DHT22;15750;49.600;8.746;2022-10-22T15:01:37;23.10;58.90
28548;DHT22;15750;49.600;8.746;2022-10-22T15:04:08;23.10;59.00
28548;DHT22;15750;49.600;8.746;2022-10-22T15:06:37;23.10;59.10
28548;DHT22;15750;49.600;8.746;2022-10-22T15:09:05;23.10;59.10
28548;DHT22;15750;49.600;8.746;2022-10-22T15:11:34;23.10;59.10
28548;DHT22;15750;49.600;8.746;2022-10-22T15:14:03;23.10;59.10
28548;DHT22;15750;49.600;8.746;2022-10-22T15:16:31;23.10;59.10
28548;DHT22;15750;49.600;8.746;2022-10-22T15:19:01;23.10;59.00
28548;DHT22;15750;49.600;8.746;2022-10-22T15:21:30;23.10;59.00
28548;DHT22;15750;49.600;8.746;2022-10-22T15:24:00;23.10;59.70
28548;DHT22;15750;49.600;8.746;2022-10-22T15:26:28;23.10;58.90
28548;DHT22;15750;49.600;8.746;2022-10-22T15:28:57;23.10;58.80
28548;DHT22;15750;49.600;8.746;2022-10-22T15:31:44;23.00;58.70
28548;DHT22;15750;49.600;8.746;2022-10-22T15:34:19;23.00;58.60
28548;DHT22;15750;49.600;8.746;2022-10-22T15:36:50;23.00;58.60
28548;DHT22;15750;49.600;8.746;2022-10-22T15:39:23;23.00;58.70
28548;DHT22;15750;49.600;8.746;2022-10-22T15:41:52;23.00;58.70
28548;DHT22;15750;49.600;8.746;2022-10-22T15:44:23;23.00;58.70
28548;DHT22;15750;49.600;8.746;2022-10-22T15:46:53;23.00;58.70
28548;DHT22;15750;49.600;8.746;2022-10-22T15:49:26;23.00;58.60
28548;DHT22;15750;49.600;8.746;2022-10-22T15:51:55;23.00;58.60
28548;DHT22;15750;49.600;8.746;2022-10-22T15:54:26;23.00;58.60
28548;DHT22;15750;49.600;8.746;2022-10-22T15:56:57;23.00;58.50
28548;DHT22;15750;49.600;8.746;2022-10-22T15:59:28;23.00;58.60
28548;DHT22;15750;49.600;8.746;2022-10-22T16:01:57;23.00;58.50
28548;DHT22;15750;49.600;8.746;2022-10-22T16:04:27;22.90;58.50
28548;DHT22;15750;49.600;8.746;2022-10-22T16:06:56;22.90;58.60
28548;DHT22;15750;49.600;8.746;2022-10-22T16:09:26;22.90;58.50
28548;DHT22;15750;49.600;8.746;2022-10-22T16:11:55;22.90;58.50
28548;DHT22;15750;49.600;8.746;2022-10-22T16:14:23;22.90;58.50
28548;DHT22;15750;49.600;8.746;2022-10-22T16:16:55;22.90;58.50
28548;DHT22;15750;49.600;8.746;2022-10-22T16:19:29;22.80;58.80
28548;DHT22;15750;49.600;8.746;2022-10-22T16:22:03;22.90;58.50
28548;DHT22;15750;49.600;8.746;2022-10-22T16:24:34;22.80;59.00
28548;DHT22;15750;49.600;8.746;2022-10-22T16:27:07;22.80;58.50
28548;DHT22;15750;49.600;8.746;2022-10-22T16:29:38;22.80;59.10
28548;DHT22;15750;49.600;8.746;2022-10-22T16:32:33;22.80;58.40
28548;DHT22;15750;49.600;8.746;2022-10-22T16:35:04;22.80;58.30
28548;DHT22;15750;49.600;8.746;2022-10-22T16:37:34;22.80;58.30
28548;DHT22;15750;49.600;8.746;2022-10-22T16:40:03;22.80;58.30
28548;DHT22;15750;49.600;8.746;2022-10-22T16:42:34;22.80;58.30
28548;DHT22;15750;49.600;8.746;2022-10-22T16:45:03;22.80;58.20
28548;DHT22;15750;49.600;8.746;2022-10-22T16:47:33;22.70;58.20